sensor_id;sensor_type;location;lat;lon;timestamp;temperature;humidity
50947;DHT22;36955;47.416;7.716;2022-07-06T00:02:20;17.80;99.90
50947;DHT22;36955;47.416;7.716;2022-07-06T00:04:46;17.80;99.90
50947;DHT22;36955;47.416;7.716;2022-07-06T00:07:12;17.80;99.90
50947;DHT22;36955;47.416;7.716;2022-07-06T00:09:38;17.80;99.90
50947;DHT22;36955;47.416;7.716;2022-07-06T00:12:04;17.80;99.90
50947;DHT22;36955;47.416;7.716;2022-07-06T00:14:30;17.70;99.90
50947;DHT22;36955;47.416;7.716;2022-07-06T00:16:57;17.70;99.90
50947;DHT22;36955;47.416;7.716;2022-07-06T00:19:23;17.70;99.90
50947;DHT22;36955;47.416;7.716;2022-07-06T00:21:49;17.70;99.90
50947;DHT22;36955;47.416;7.716;2022-07-06T00:24:15;17.70;99.90
50947;DHT22;36955;47.416;7.716;2022-07-06T00:26:41;17.60;99.90
50947;DHT22;36955;47.416;7.716;2022-07-06T00:29:07;17.60;99.90
50947;DHT22;36955;47.416;7.716;2022-07-06T00:31:33;17.60;99.90
50947;DHT22;36955;47.416;7.716;2022-07-06T00:33:59;17.50;99.90
50947;DHT22;36955;47.416;7.716;2022-07-06T00:36:25;17.50;99.90
50947;DHT22;36955;47.416;7.716;2022-07-06T00:38:51;17.50;99.90
50947;DHT22;36955;47.416;7.716;2022-07-06T00:41:17;17.50;99.90
50947;DHT22;36955;47.416;7.716;2022-07-06T00:43:55;17.50;99.90
50947;DHT22;36955;47.416;7.716;2022-07-06T00:46:32;17.40;99.90
50947;DHT22;36955;47.416;7.716;2022-07-06T00:48:58;17.30;99.90
50947;DHT22;36955;47.416;7.716;2022-07-06T00:51:30;17.30;99.90
50947;DHT22;36955;47.416;7.716;2022-07-06T00:54:03;17.20;99.90
50947;DHT22;36955;47.416;7.716;2022-07-06T00:56:31;17.20;99.90
50947;DHT22;36955;47.416;7.716;2022-07-06T00:58:58;17.10;99.90
50947;DHT22;36955;47.416;7.716;2022-07-06T01:01:25;17.10;99.90
50947;DHT22;36955;47.416;7.716;2022-07-06T01:03:51;17.10;99.90
50947;DHT22;36955;47.416;7.716;2022-07-06T01:06:17;17.10;99.90
50947;DHT22;36955;47.416;7.716;2022-07-06T01:08:44;17.10;99.90
50947;DHT22;36955;47.416;7.716;2022-07-06T01:11:10;17.00;99.90
50947;DHT22;36955;47.416;7.716;2022-07-06T01:13:36;16.90;99.90
50947;DHT22;36955;47.416;7.716;2022-07-06T01:16:03;16.90;99.90
50947;DHT22;36955;47.416;7.716;2022-07-06T01:18:29;16.90;99.90
50947;DHT22;36955;47.416;7.716;2022-07-06T01:21:10;16.90;99.90
50947;DHT22;36955;47.416;7.716;2022-07-06T01:23:44;16.80;99.90
50947;DHT22;36955;47.416;7.716;2022-07-06T01:26:16;16.90;99.90
50947;DHT22;36955;47.416;7.716;2022-07-06T01:28:42;16.80;99.90
50947;DHT22;36955;47.416;7.716;2022-07-06T01:31:16;16.80;99.90
50947;DHT22;36955;47.416;7.716;2022-07-06T01:33:43;16.80;99.90
50947;DHT22;36955;47.416;7.716;2022-07-06T01:36:10;16.70;99.90
50947;DHT22;36955;47.416;7.716;2022-07-06T01:38:58;16.70;99.90
50947;DHT22;36955;47.416;7.716;2022-07-06T01:41:24;16.80;99.90
50947;DHT22;36955;47.416;7.716;2022-07-06T01:43:51;16.80;99.90
50947;DHT22;36955;47.416;7.716;2022-07-06T01:46:17;16.90;99.90
50947;DHT22;36955;47.416;7.716;2022-07-06T01:48:43;16.90;99.90
50947;DHT22;36955;47.416;7.716;2022-07-06T01:51:09;16.80;99.90
50947;DHT22;36955;47.416;7.716;2022-07-06T01:53:36;16.80;99.90
50947;DHT22;36955;47.416;7.716;2022-07-06T01:56:02;16.80;99.90
50947;DHT22;36955;47.416;7.716;2022-07-06T01:58:28;16.80;99.90
50947;DHT22;36955;47.416;7.716;2022-07-06T02:00:54;16.60;99.90
50947;DHT22;36955;47.416;7.716;2022-07-06T02:03:20;16.60;99.90
50947;DHT22;36955;47.416;7.716;2022-07-06T02:05:46;16.60;99.90
50947;DHT22;36955;47.416;7.716;2022-07-06T02:08:13;16.60;99.90
50947;DHT22;36955;47.416;7.716;2022-07-06T02:10:39;16.60;99.90
50947;DHT22;36955;47.416;7.716;2022-07-06T02:13:05;16.60;99.90
50947;DHT22;36955;47.416;7.716;2022-07-06T02:15:31;16.60;99.90
50947;DHT22;36955;47.416;7.716;2022-07-06T02:17:58;16.50;99.90
50947;DHT22;36955;47.416;7.716;2022-07-06T02:20:24;16.40;99.90
50947;DHT22;36955;47.416;7.716;2022-07-06T02:22:50;16.40;99.90
50947;DHT22;36955;47.416;7.716;2022-07-06T02:25:16;16.40;99.90
50947;DHT22;36955;47.416;7.716;2022-07-06T02:27:42;16.30;99.90
50947;DHT22;36955;47.416;7.716;2022-07-06T02:30:09;16.30;99.90
50947;DHT22;36955;47.416;7.716;2022-07-06T02:32:35;16.20;99.90
50947;DHT22;36955;47.416;7.716;2022-07-06T02:35:01;16.30;99.90
50947;DHT22;36955;47.416;7.716;2022-07-06T02:37:27;16.30;99.90
50947;DHT22;36955;47.416;7.716;2022-07-06T02:39:53;16.30;99.90
50947;DHT22;36955;47.416;7.716;2022-07-06T02:42:19;16.30;99.90
50947;DHT22;36955;47.416;7.716;2022-07-06T02:44:45;16.40;99.90
50947;DHT22;36955;47.416;7.716;2022-07-06T02:47:11;16.40;99.90
50947;DHT22;36955;47.416;7.716;2022-07-06T02:49:37;16.50;99.90
50947;DHT22;36955;47.416;7.716;2022-07-06T02:52:03;16.50;99.90
50947;DHT22;36955;47.416;7.716;2022-07-06T02:54:29;16.60;99.90
50947;DHT22;36955;47.416;7.716;2022-07-06T02:56:55;16.60;99.90
50947;DHT22;36955;47.416;7.716;2022-07-06T02:59:21;16.60;99.90
50947;DHT22;36955;47.416;7.716;2022-07-06T03:01:47;16.60;99.90
50947;DHT22;36955;47.416;7.716;2022-07-06T03:04:13;16.60;99.90
50947;DHT22;36955;47.416;7.716;2022-07-06T03:06:39;16.60;99.90
50947;DHT22;36955;47.416;7.716;2022-07-06T03:09:05;16.50;99.90
50947;DHT22;36955;47.416;7.716;2022-07-06T03:11:31;16.50;99.90
50947;DHT22;36955;47.416;7.716;2022-07-06T03:13:57;16.50;99.90
50947;DHT22;36955;47.416;7.716;2022-07-06T03:16:23;16.50;99.90
50947;DHT22;36955;47.416;7.716;2022-07-06T03:18:49;16.50;99.90
50947;DHT22;36955;47.416;7.716;2022-07-06T03:21:15;16.50;99.90
50947;DHT22;36955;47.416;7.716;2022-07-06T03:23:41;16.50;99.90
50947;DHT22;36955;47.416;7.716;2022-07-06T03:26:07;16.40;99.90
50947;DHT22;36955;47.416;7.716;2022-07-06T03:28:33;16.40;99.90
50947;DHT22;36955;47.416;7.716;2022-07-06T03:30:59;16.30;99.90
50947;DHT22;36955;47.416;7.716;2022-07-06T03:33:25;16.30;99.90
50947;DHT22;36955;47.416;7.716;2022-07-06T03:35:51;16.20;99.90
50947;DHT22;36955;47.416;7.716;2022-07-06T03:38:17;16.20;99.90
50947;DHT22;36955;47.416;7.716;2022-07-06T03:40:43;16.20;99.90
50947;DHT22;36955;47.416;7.716;2022-07-06T03:43:09;16.20;99.90
50947;DHT22;36955;47.416;7.716;2022-07-06T03:45:35;16.20;99.90
50947;DHT22;36955;47.416;7.716;2022-07-06T03:48:02;16.20;99.90
50947;DHT22;36955;47.416;7.716;2022-07-06T03:50:28;16.20;99.90
50947;DHT22;36955;47.416;7.716;2022-07-06T03:52:54;16.20;99.90
50947;DHT22;36955;47.416;7.716;2022-07-06T03:55:20;16.20;99.90
50947;DHT22;36955;47.416;7.716;2022-07-06T03:57:46;16.20;99.90
50947;DHT22;36955;47.416;7.716;2022-07-06T04:00:12;16.20;99.90
50947;DHT22;36955;47.416;7.716;2022-07-06T04:02:38;16.20;99.90
50947;DHT22;36955;47.416;7.716;2022-07-06T04:05:05;16.10;99.90
50947;DHT22;36955;47.416;7.716;2022-07-06T04:07:31;16.10;99.90
50947;DHT22;36955;47.416;7.716;2022-07-06T04:09:57;16.10;99.90
50947;DHT22;36955;47.416;7.716;2022-07-06T04:12:23;16.10;99.90
50947;DHT22;36955;47.416;7.716;2022-07-06T04:14:49;16.10;99.90
50947;DHT22;36955;47.416;7.716;2022-07-06T04:17:15;16.10;99.90
50947;DHT22;36955;47.416;7.716;2022-07-06T04:19:41;16.10;99.90
50947;DHT22;36955;47.416;7.716;2022-07-06T04:22:07;16.10;99.90
50947;DHT22;36955;47.416;7.716;2022-07-06T04:24:34;16.10;99.90
50947;DHT22;36955;47.416;7.716;2022-07-06T04:27:00;16.10;99.90
50947;DHT22;36955;47.416;7.716;2022-07-06T04:29:26;16.10;99.90
50947;DHT22;36955;47.416;7.716;2022-07-06T04:31:52;16.10;99.90
50947;DHT22;36955;47.416;7.716;2022-07-06T04:34:18;16.20;99.90
50947;DHT22;36955;47.416;7.716;2022-07-06T04:36:44;16.10;99.90
50947;DHT22;36955;47.416;7.716;2022-07-06T04:39:10;16.10;99.90
50947;DHT22;36955;47.416;7.716;2022-07-06T04:41:36;16.10;99.90
50947;DHT22;36955;47.416;7.716;2022-07-06T04:44:02;16.10;99.90
50947;DHT22;36955;47.416;7.716;2022-07-06T04:46:28;16.10;99.90
50947;DHT22;36955;47.416;7.716;2022-07-06T04:48:54;16.10;99.90
50947;DHT22;36955;47.416;7.716;2022-07-06T04:51:20;16.20;99.90
50947;DHT22;36955;47.416;7.716;2022-07-06T04:53:46;16.20;99.90
50947;DHT22;36955;47.416;7.716;2022-07-06T04:56:12;16.10;99.90
50947;DHT22;36955;47.416;7.716;2022-07-06T04:58:38;16.10;99.90
50947;DHT22;36955;47.416;7.716;2022-07-06T05:01:04;16.10;99.90
50947;DHT22;36955;47.416;7.716;2022-07-06T05:03:30;16.10;99.90
50947;DHT22;36955;47.416;7.716;2022-07-06T05:05:56;16.20;99.90
50947;DHT22;36955;47.416;7.716;2022-07-06T05:08:22;16.20;99.90
50947;DHT22;36955;47.416;7.716;2022-07-06T05:10:49;16.20;99.90
50947;DHT22;36955;47.416;7.716;2022-07-06T05:13:15;16.30;99.90
50947;DHT22;36955;47.416;7.716;2022-07-06T05:15:41;16.30;99.90
50947;DHT22;36955;47.416;7.716;2022-07-06T05:18:07;16.30;99.90
50947;DHT22;36955;47.416;7.716;2022-07-06T05:20:33;16.40;99.90
50947;DHT22;36955;47.416;7.716;2022-07-06T05:22:59;16.40;99.90
50947;DHT22;36955;47.416;7.716;2022-07-06T05:25:25;16.40;99.90
50947;DHT22;36955;47.416;7.716;2022-07-06T05:27:51;16.40;99.90
50947;DHT22;36955;47.416;7.716;2022-07-06T05:30:17;16.40;99.90
50947;DHT22;36955;47.416;7.716;2022-07-06T05:32:43;16.40;99.90
50947;DHT22;36955;47.416;7.716;2022-07-06T05:35:09;16.40;99.90
50947;DHT22;36955;47.416;7.716;2022-07-06T05:37:35;16.40;99.90
50947;DHT22;36955;47.416;7.716;2022-07-06T05:40:01;16.40;99.90
50947;DHT22;36955;47.416;7.716;2022-07-06T05:42:27;16.30;99.90
50947;DHT22;36955;47.416;7.716;2022-07-06T05:44:56;16.30;99.90
50947;DHT22;36955;47.416;7.716;2022-07-06T05:47:22;16.30;99.90
50947;DHT22;36955;47.416;7.716;2022-07-06T05:49:48;16.30;99.90
50947;DHT22;36955;47.416;7.716;2022-07-06T05:52:14;16.40;99.90
50947;DHT22;36955;47.416;7.716;2022-07-06T05:54:40;16.40;99.90
50947;DHT22;36955;47.416;7.716;2022-07-06T05:57:06;16.30;99.90
50947;DHT22;36955;47.416;7.716;2022-07-06T05:59:32;16.30;99.90
50947;DHT22;36955;47.416;7.716;2022-07-06T06:01:58;16.30;99.90
50947;DHT22;36955;47.416;7.716;2022-07-06T06:04:24;16.30;99.90
50947;DHT22;36955;47.416;7.716;2022-07-06T06:06:50;16.30;99.90
50947;DHT22;36955;47.416;7.716;2022-07-06T06:09:16;16.40;99.90
50947;DHT22;36955;47.416;7.716;2022-07-06T06:11:42;16.40;99.90
50947;DHT22;36955;47.416;7.716;2022-07-06T06:14:08;16.40;99.90
50947;DHT22;36955;47.416;7.716;2022-07-06T06:16:34;16.40;99.90
50947;DHT22;36955;47.416;7.716;2022-07-06T06:19:01;16.40;99.90
50947;DHT22;36955;47.416;7.716;2022-07-06T06:21:27;16.40;99.90
50947;DHT22;36955;47.416;7.716;2022-07-06T06:23:53;16.40;99.90
50947;DHT22;36955;47.416;7.716;2022-07-06T06:26:19;16.30;99.90
50947;DHT22;36955;47.416;7.716;2022-07-06T06:28:45;16.30;99.90
50947;DHT22;36955;47.416;7.716;2022-07-06T06:31:11;16.40;99.90
50947;DHT22;36955;47.416;7.716;2022-07-06T06:33:37;16.40;99.90
50947;DHT22;36955;47.416;7.716;2022-07-06T06:36:03;16.50;99.90
50947;DHT22;36955;47.416;7.716;2022-07-06T06:38:29;16.60;99.90
50947;DHT22;36955;47.416;7.716;2022-07-06T06:40:55;16.60;99.90
50947;DHT22;36955;47.416;7.716;2022-07-06T06:43:22;16.70;99.90
50947;DHT22;36955;47.416;7.716;2022-07-06T06:45:48;16.70;99.90
50947;DHT22;36955;47.416;7.716;2022-07-06T06:48:14;16.80;99.90
50947;DHT22;36955;47.416;7.716;2022-07-06T06:50:40;16.90;99.90
50947;DHT22;36955;47.416;7.716;2022-07-06T06:53:06;17.10;99.90
50947;DHT22;36955;47.416;7.716;2022-07-06T06:55:32;17.20;99.90
50947;DHT22;36955;47.416;7.716;2022-07-06T06:57:58;17.20;99.90
50947;DHT22;36955;47.416;7.716;2022-07-06T07:00:24;17.40;99.90
50947;DHT22;36955;47.416;7.716;2022-07-06T07:02:50;17.50;99.90
50947;DHT22;36955;47.416;7.716;2022-07-06T07:05:16;17.50;99.90
50947;DHT22;36955;47.416;7.716;2022-07-06T07:07:42;17.60;99.90
50947;DHT22;36955;47.416;7.716;2022-07-06T07:10:08;17.70;99.90
50947;DHT22;36955;47.416;7.716;2022-07-06T07:12:34;17.70;99.90
50947;DHT22;36955;47.416;7.716;2022-07-06T07:15:01;17.70;99.90
50947;DHT22;36955;47.416;7.716;2022-07-06T07:17:27;17.70;99.90
50947;DHT22;36955;47.416;7.716;2022-07-06T07:19:53;17.70;99.90
50947;DHT22;36955;47.416;7.716;2022-07-06T07:22:19;17.60;99.90
50947;DHT22;36955;47.416;7.716;2022-07-06T07:24:45;17.60;99.90
50947;DHT22;36955;47.416;7.716;2022-07-06T07:27:11;17.60;99.90
50947;DHT22;36955;47.416;7.716;2022-07-06T07:29:37;17.60;99.90
50947;DHT22;36955;47.416;7.716;2022-07-06T07:32:03;17.60;99.90
50947;DHT22;36955;47.416;7.716;2022-07-06T07:34:29;17.60;99.90
50947;DHT22;36955;47.416;7.716;2022-07-06T07:36:55;17.60;99.90
50947;DHT22;36955;47.416;7.716;2022-07-06T07:39:21;17.70;99.90
50947;DHT22;36955;47.416;7.716;2022-07-06T07:41:47;17.80;99.90
50947;DHT22;36955;47.416;7.716;2022-07-06T07:44:13;18.10;99.90
50947;DHT22;36955;47.416;7.716;2022-07-06T07:46:39;18.20;99.90
50947;DHT22;36955;47.416;7.716;2022-07-06T07:49:05;18.30;99.90
50947;DHT22;36955;47.416;7.716;2022-07-06T07:51:31;18.30;99.90
50947;DHT22;36955;47.416;7.716;2022-07-06T07:53:57;18.40;99.90
50947;DHT22;36955;47.416;7.716;2022-07-06T07:56:23;18.40;99.90
50947;DHT22;36955;47.416;7.716;2022-07-06T07:58:49;18.50;99.90
50947;DHT22;36955;47.416;7.716;2022-07-06T08:01:15;18.60;99.90
50947;DHT22;36955;47.416;7.716;2022-07-06T08:03:41;18.60;99.90
50947;DHT22;36955;47.416;7.716;2022-07-06T08:06:07;18.70;99.90
50947;DHT22;36955;47.416;7.716;2022-07-06T08:08:33;18.70;99.90
50947;DHT22;36955;47.416;7.716;2022-07-06T08:10:59;18.80;99.90
50947;DHT22;36955;47.416;7.716;2022-07-06T08:13:25;18.80;99.90
50947;DHT22;36955;47.416;7.716;2022-07-06T08:15:51;18.80;99.90
50947;DHT22;36955;47.416;7.716;2022-07-06T08:18:18;18.80;99.90
50947;DHT22;36955;47.416;7.716;2022-07-06T08:20:43;18.80;99.90
50947;DHT22;36955;47.416;7.716;2022-07-06T08:23:10;18.90;99.90
50947;DHT22;36955;47.416;7.716;2022-07-06T08:25:36;18.90;99.90
50947;DHT22;36955;47.416;7.716;2022-07-06T08:28:02;19.00;99.90
50947;DHT22;36955;47.416;7.716;2022-07-06T08:30:28;19.00;99.90
50947;DHT22;36955;47.416;7.716;2022-07-06T08:32:54;19.10;99.90
50947;DHT22;36955;47.416;7.716;2022-07-06T08:35:20;19.10;99.90
50947;DHT22;36955;47.416;7.716;2022-07-06T08:37:46;19.10;99.90
50947;DHT22;36955;47.416;7.716;2022-07-06T08:40:12;19.10;99.90
50947;DHT22;36955;47.416;7.716;2022-07-06T08:42:38;19.10;99.90
50947;DHT22;36955;47.416;7.716;2022-07-06T08:45:06;19.00;99.90
50947;DHT22;36955;47.416;7.716;2022-07-06T08:47:36;19.10;99.90
50947;DHT22;36955;47.416;7.716;2022-07-06T08:50:04;19.20;99.90
50947;DHT22;36955;47.416;7.716;2022-07-06T08:52:32;19.30;99.90
50947;DHT22;36955;47.416;7.716;2022-07-06T08:54:58;19.30;99.90
50947;DHT22;36955;47.416;7.716;2022-07-06T08:57:25;19.40;99.90
50947;DHT22;36955;47.416;7.716;2022-07-06T08:59:51;19.50;99.90
50947;DHT22;36955;47.416;7.716;2022-07-06T09:02:17;19.50;99.90
50947;DHT22;36955;47.416;7.716;2022-07-06T09:04:45;19.50;99.90
50947;DHT22;36955;47.416;7.716;2022-07-06T09:07:13;19.50;99.90
50947;DHT22;36955;47.416;7.716;2022-07-06T09:09:40;19.60;99.90
50947;DHT22;36955;47.416;7.716;2022-07-06T09:12:11;19.70;99.90
50947;DHT22;36955;47.416;7.716;2022-07-06T09:14:37;19.70;99.90
50947;DHT22;36955;47.416;7.716;2022-07-06T09:17:05;19.70;99.90
50947;DHT22;36955;47.416;7.716;2022-07-06T09:19:33;19.60;99.90
50947;DHT22;36955;47.416;7.716;2022-07-06T09:22:00;19.60;99.90
50947;DHT22;36955;47.416;7.716;2022-07-06T09:24:27;19.50;99.90
50947;DHT22;36955;47.416;7.716;2022-07-06T09:26:57;19.50;99.90
50947;DHT22;36955;47.416;7.716;2022-07-06T09:29:31;19.60;99.90
50947;DHT22;36955;47.416;7.716;2022-07-06T09:32:02;19.70;99.90
50947;DHT22;36955;47.416;7.716;2022-07-06T09:34:45;19.70;99.90
50947;DHT22;36955;47.416;7.716;2022-07-06T09:37:12;19.70;99.90
50947;DHT22;36955;47.416;7.716;2022-07-06T09:39:38;19.70;99.90
50947;DHT22;36955;47.416;7.716;2022-07-06T09:42:05;19.80;99.90
50947;DHT22;36955;47.416;7.716;2022-07-06T09:44:36;19.90;99.90
50947;DHT22;36955;47.416;7.716;2022-07-06T09:47:05;20.00;99.90
50947;DHT22;36955;47.416;7.716;2022-07-06T09:49:31;20.00;99.90
50947;DHT22;36955;47.416;7.716;2022-07-06T09:52:00;20.00;99.90
50947;DHT22;36955;47.416;7.716;2022-07-06T09:54:27;20.00;99.90
50947;DHT22;36955;47.416;7.716;2022-07-06T09:56:54;20.10;99.90
50947;DHT22;36955;47.416;7.716;2022-07-06T09:59:26;20.10;99.90
50947;DHT22;36955;47.416;7.716;2022-07-06T10:01:57;20.20;99.90
50947;DHT22;36955;47.416;7.716;2022-07-06T10:04:25;20.30;99.90
50947;DHT22;36955;47.416;7.716;2022-07-06T10:06:52;20.20;99.90
50947;DHT22;36955;47.416;7.716;2022-07-06T10:09:20;20.20;99.90
50947;DHT22;36955;47.416;7.716;2022-07-06T10:11:57;20.20;99.90
50947;DHT22;36955;47.416;7.716;2022-07-06T10:14:28;20.20;99.90
50947;DHT22;36955;47.416;7.716;2022-07-06T10:17:00;20.30;99.90
50947;DHT22;36955;47.416;7.716;2022-07-06T10:19:28;20.40;99.90
50947;DHT22;36955;47.416;7.716;2022-07-06T10:21:57;20.50;99.90
50947;DHT22;36955;47.416;7.716;2022-07-06T10:24:24;20.50;99.90
50947;DHT22;36955;47.416;7.716;2022-07-06T10:26:51;20.50;99.90
50947;DHT22;36955;47.416;7.716;2022-07-06T10:29:18;20.50;99.90
50947;DHT22;36955;47.416;7.716;2022-07-06T10:31:46;20.50;99.90
50947;DHT22;36955;47.416;7.716;2022-07-06T10:34:15;20.50;99.90
50947;DHT22;36955;47.416;7.716;2022-07-06T10:36:43;20.50;99.90
50947;DHT22;36955;47.416;7.716;2022-07-06T10:39:10;20.50;99.90
50947;DHT22;36955;47.416;7.716;2022-07-06T10:41:36;20.50;99.90
50947;DHT22;36955;47.416;7.716;2022-07-06T10:44:21;20.60;99.90
50947;DHT22;36955;47.416;7.716;2022-07-06T10:46:55;20.60;99.90
50947;DHT22;36955;47.416;7.716;2022-07-06T10:49:23;20.70;99.90
50947;DHT22;36955;47.416;7.716;2022-07-06T10:51:50;20.70;99.90
50947;DHT22;36955;47.416;7.716;2022-07-06T10:54:17;20.80;99.90
50947;DHT22;36955;47.416;7.716;2022-07-06T10:56:51;20.90;99.90
50947;DHT22;36955;47.416;7.716;2022-07-06T10:59:19;21.00;99.90
50947;DHT22;36955;47.416;7.716;2022-07-06T11:02:14;21.10;99.90
50947;DHT22;36955;47.416;7.716;2022-07-06T11:04:42;21.10;99.90
50947;DHT22;36955;47.416;7.716;2022-07-06T11:07:10;21.10;99.90
50947;DHT22;36955;47.416;7.716;2022-07-06T11:09:37;21.20;99.90
50947;DHT22;36955;47.416;7.716;2022-07-06T11:12:15;21.30;99.90
50947;DHT22;36955;47.416;7.716;2022-07-06T11:14:42;21.20;99.90
50947;DHT22;36955;47.416;7.716;2022-07-06T11:17:10;21.10;99.90
50947;DHT22;36955;47.416;7.716;2022-07-06T11:19:38;21.10;99.90
50947;DHT22;36955;47.416;7.716;2022-07-06T11:22:10;21.10;99.90
50947;DHT22;36955;47.416;7.716;2022-07-06T11:24:39;21.20;99.90
50947;DHT22;36955;47.416;7.716;2022-07-06T11:27:05;21.30;99.90
50947;DHT22;36955;47.416;7.716;2022-07-06T11:29:31;21.40;99.90
50947;DHT22;36955;47.416;7.716;2022-07-06T11:31:59;21.50;99.90
50947;DHT22;36955;47.416;7.716;2022-07-06T11:34:31;21.60;99.90
50947;DHT22;36955;47.416;7.716;2022-07-06T11:37:05;21.60;99.90
50947;DHT22;36955;47.416;7.716;2022-07-06T11:39:36;21.60;99.90
50947;DHT22;36955;47.416;7.716;2022-07-06T11:42:03;21.60;99.90
50947;DHT22;36955;47.416;7.716;2022-07-06T11:44:29;21.50;99.90
50947;DHT22;36955;47.416;7.716;2022-07-06T11:46:56;21.50;99.90
50947;DHT22;36955;47.416;7.716;2022-07-06T11:49:23;21.40;99.90
50947;DHT22;36955;47.416;7.716;2022-07-06T11:51:49;21.50;99.90
50947;DHT22;36955;47.416;7.716;2022-07-06T11:54:17;21.50;99.90
50947;DHT22;36955;47.416;7.716;2022-07-06T11:56:57;21.50;99.90
50947;DHT22;36955;47.416;7.716;2022-07-06T11:59:28;21.50;99.90
50947;DHT22;36955;47.416;7.716;2022-07-06T12:02:05;21.60;99.90
50947;DHT22;36955;47.416;7.716;2022-07-06T12:04:42;21.70;99.90
50947;DHT22;36955;47.416;7.716;2022-07-06T12:07:13;21.70;99.90
50947;DHT22;36955;47.416;7.716;2022-07-06T12:09:41;21.80;99.90
50947;DHT22;36955;47.416;7.716;2022-07-06T12:12:08;21.90;99.90
50947;DHT22;36955;47.416;7.716;2022-07-06T12:14:36;21.90;99.90
50947;DHT22;36955;47.416;7.716;2022-07-06T12:17:07;22.00;99.90
50947;DHT22;36955;47.416;7.716;2022-07-06T12:19:34;22.00;99.90
50947;DHT22;36955;47.416;7.716;2022-07-06T12:22:01;22.10;99.90
50947;DHT22;36955;47.416;7.716;2022-07-06T12:24:29;22.00;99.90
50947;DHT22;36955;47.416;7.716;2022-07-06T12:26:55;22.00;99.90
50947;DHT22;36955;47.416;7.716;2022-07-06T12:29:21;21.90;99.90
50947;DHT22;36955;47.416;7.716;2022-07-06T12:31:51;21.90;99.90
50947;DHT22;36955;47.416;7.716;2022-07-06T12:34:23;21.90;99.90
50947;DHT22;36955;47.416;7.716;2022-07-06T12:36:56;21.90;99.90
50947;DHT22;36955;47.416;7.716;2022-07-06T12:39:25;22.00;99.90
50947;DHT22;36955;47.416;7.716;2022-07-06T12:41:53;22.10;99.90
50947;DHT22;36955;47.416;7.716;2022-07-06T12:44:24;22.30;99.90
50947;DHT22;36955;47.416;7.716;2022-07-06T12:47:01;22.30;99.90
50947;DHT22;36955;47.416;7.716;2022-07-06T12:49:27;22.20;99.90
50947;DHT22;36955;47.416;7.716;2022-07-06T12:54:32;22.20;99.90
50947;DHT22;36955;47.416;7.716;2022-07-06T12:57:05;22.30;99.90
50947;DHT22;36955;47.416;7.716;2022-07-06T12:59:33;22.30;99.90
50947;DHT22;36955;47.416;7.716;2022-07-06T13:01:59;22.50;99.90
50947;DHT22;36955;47.416;7.716;2022-07-06T13:04:30;22.60;99.90
50947;DHT22;36955;47.416;7.716;2022-07-06T13:06:56;22.80;99.90
50947;DHT22;36955;47.416;7.716;2022-07-06T13:09:22;22.90;99.90
50947;DHT22;36955;47.416;7.716;2022-07-06T13:11:49;23.10;99.90
50947;DHT22;36955;47.416;7.716;2022-07-06T13:14:16;23.30;99.90
50947;DHT22;36955;47.416;7.716;2022-07-06T13:16:46;23.40;99.90
50947;DHT22;36955;47.416;7.716;2022-07-06T13:19:12;23.60;99.90
50947;DHT22;36955;47.416;7.716;2022-07-06T13:21:39;23.70;99.90
50947;DHT22;36955;47.416;7.716;2022-07-06T13:24:05;23.90;99.90
50947;DHT22;36955;47.416;7.716;2022-07-06T13:26:32;24.00;99.90
50947;DHT22;36955;47.416;7.716;2022-07-06T13:28:58;24.10;99.90
50947;DHT22;36955;47.416;7.716;2022-07-06T13:31:24;24.10;99.90
50947;DHT22;36955;47.416;7.716;2022-07-06T13:33:50;24.20;99.90
50947;DHT22;36955;47.416;7.716;2022-07-06T13:36:16;24.30;99.90
50947;DHT22;36955;47.416;7.716;2022-07-06T13:38:42;24.40;99.90
50947;DHT22;36955;47.416;7.716;2022-07-06T13:41:08;24.50;99.90
50947;DHT22;36955;47.416;7.716;2022-07-06T13:43:34;24.70;99.90
50947;DHT22;36955;47.416;7.716;2022-07-06T13:46:00;24.70;99.90
50947;DHT22;36955;47.416;7.716;2022-07-06T13:48:26;24.80;99.90
50947;DHT22;36955;47.416;7.716;2022-07-06T13:50:52;24.70;99.90
50947;DHT22;36955;47.416;7.716;2022-07-06T13:53:18;24.60;99.90
50947;DHT22;36955;47.416;7.716;2022-07-06T13:55:44;24.60;99.90
50947;DHT22;36955;47.416;7.716;2022-07-06T13:58:10;24.70;99.90
50947;DHT22;36955;47.416;7.716;2022-07-06T14:00:36;24.70;99.90
50947;DHT22;36955;47.416;7.716;2022-07-06T14:03:02;24.90;99.90
50947;DHT22;36955;47.416;7.716;2022-07-06T14:05:29;25.00;99.90
50947;DHT22;36955;47.416;7.716;2022-07-06T14:07:55;25.00;99.90
50947;DHT22;36955;47.416;7.716;2022-07-06T14:10:21;24.90;99.90
50947;DHT22;36955;47.416;7.716;2022-07-06T14:12:47;24.90;99.90
50947;DHT22;36955;47.416;7.716;2022-07-06T14:15:13;24.90;99.90
50947;DHT22;36955;47.416;7.716;2022-07-06T14:17:39;25.00;99.90
50947;DHT22;36955;47.416;7.716;2022-07-06T14:20:06;25.20;99.90
50947;DHT22;36955;47.416;7.716;2022-07-06T14:22:32;25.50;99.90
50947;DHT22;36955;47.416;7.716;2022-07-06T14:24:58;25.50;99.90
50947;DHT22;36955;47.416;7.716;2022-07-06T14:27:25;25.40;99.90
50947;DHT22;36955;47.416;7.716;2022-07-06T14:29:51;25.40;99.90
50947;DHT22;36955;47.416;7.716;2022-07-06T14:32:17;25.40;99.90
50947;DHT22;36955;47.416;7.716;2022-07-06T14:34:43;25.50;99.90
50947;DHT22;36955;47.416;7.716;2022-07-06T14:37:09;25.70;99.90
50947;DHT22;36955;47.416;7.716;2022-07-06T14:39:35;25.60;99.90
50947;DHT22;36955;47.416;7.716;2022-07-06T14:42:01;25.60;99.90
50947;DHT22;36955;47.416;7.716;2022-07-06T14:44:27;25.80;99.90
50947;DHT22;36955;47.416;7.716;2022-07-06T14:46:53;26.00;99.90
50947;DHT22;36955;47.416;7.716;2022-07-06T14:49:19;26.20;99.90
50947;DHT22;36955;47.416;7.716;2022-07-06T14:51:45;26.20;99.90
50947;DHT22;36955;47.416;7.716;2022-07-06T14:54:11;26.30;99.90
50947;DHT22;36955;47.416;7.716;2022-07-06T14:56:37;26.20;99.90
50947;DHT22;36955;47.416;7.716;2022-07-06T14:59:03;26.00;99.90
50947;DHT22;36955;47.416;7.716;2022-07-06T15:01:29;25.80;99.90
50947;DHT22;36955;47.416;7.716;2022-07-06T15:03:55;25.60;99.90
50947;DHT22;36955;47.416;7.716;2022-07-06T15:06:21;25.60;99.90
50947;DHT22;36955;47.416;7.716;2022-07-06T15:08:47;25.60;99.90
50947;DHT22;36955;47.416;7.716;2022-07-06T15:11:13;25.60;99.90
50947;DHT22;36955;47.416;7.716;2022-07-06T15:13:39;25.70;99.90
50947;DHT22;36955;47.416;7.716;2022-07-06T15:16:05;25.80;99.90
50947;DHT22;36955;47.416;7.716;2022-07-06T15:18:31;26.10;99.90
50947;DHT22;36955;47.416;7.716;2022-07-06T15:20:57;26.30;99.90
50947;DHT22;36955;47.416;7.716;2022-07-06T15:23:23;26.40;99.90
50947;DHT22;36955;47.416;7.716;2022-07-06T15:25:49;26.50;99.90
50947;DHT22;36955;47.416;7.716;2022-07-06T15:28:15;26.70;99.90
50947;DHT22;36955;47.416;7.716;2022-07-06T15:30:41;26.90;99.90
50947;DHT22;36955;47.416;7.716;2022-07-06T15:33:07;26.90;99.90